This is the latest recevied weather packets stored in our database for station/object PY3MO-13. If no packets are shown the sender has not sent any weather packets the latest 1 day(s).
| Time | Temp. | Humidity | Pressure | Rain* | Wind** | Luminosity | Snow |
|---|---|---|---|---|---|---|---|
| 1778082132 | 28.89° C | 54% | 1018.5 hPa | 0 mm | - | - | - |
| 1778079431 | 26.67° C | 61% | 1019.2 hPa | 0 mm | - | - | - |
| 1778078231 | 27.78° C | 58% | 1019.3 hPa | 0 mm | - | - | - |
| 1778076731 | 27.78° C | 58% | 1019.9 hPa | 0 mm | - | - | - |
| 1778076132 | 26.67° C | 62% | 1019.8 hPa | 0 mm | - | - | - |
| 1778075231 | 27.78° C | 57% | 1020.2 hPa | 0 mm | - | - | - |
| 1778074932 | 27.78° C | 57% | 1020 hPa | 0 mm | - | - | - |
| 1778074031 | 27.22° C | 62% | 1020.3 hPa | 0 mm | - | - | - |
| 1778071630 | 27.22° C | 62% | 1020.6 hPa | 0 mm | - | - | - |
| 1778071329 | 26.67° C | 62% | 1020.5 hPa | 0 mm | - | - | - |
| 1778069831 | 25° C | 70% | 1020.5 hPa | 0 mm | - | - | - |
| 1778069530 | 24.44° C | 71% | 1020.5 hPa | 0 mm | - | - | - |
| 1778068929 | 22.22° C | 71% | 1020.3 hPa | 0 mm | - | - | - |
| 1778068330 | 22.22° C | 75% | 1020.5 hPa | 0 mm | - | - | - |
| 1778068030 | 21.67° C | 76% | 1020.5 hPa | 0 mm | - | - | - |
| 1778067729 | 21.67° C | 76% | 1020.4 hPa | 0 mm | - | - | - |
| 1778066830 | 20.56° C | 79% | 1020.3 hPa | 0 mm | - | - | - |
| 1778065630 | 20° C | 81% | 1020.3 hPa | 0 mm | - | - | - |
| 1778065330 | 20° C | 81% | 1020.5 hPa | 0 mm | - | - | - |
| 1778064729 | 20° C | 82% | 1020.2 hPa | 0 mm | - | - | - |
| 1778063531 | 18.89° C | 85% | 1020 hPa | 0 mm | - | - | - |
| 1778062930 | 18.89° C | 86% | 1019.8 hPa | 0 mm | - | - | - |
| 1778062331 | 18.33° C | 88% | 1019.9 hPa | 0 mm | - | - | - |
| 1778061730 | 18.33° C | 88% | 1019.7 hPa | 0 mm | - | - | - |
| 1778060831 | 18.33° C | 88% | 1019.7 hPa | 0 mm | - | - | - |
* Rain latest hour (hover to see other rain measurements)
** Current wind speed in m/s (hover to see current wind gust speed)